createdAt,value
2022-10-22T00:01:04.819Z,2.22
2022-10-22T00:03:32.406Z,2.10
2022-10-22T00:06:00.406Z,2.08
2022-10-22T00:08:28.140Z,1.98
2022-10-22T00:10:55.391Z,1.50
2022-10-22T00:13:23.115Z,1.95
2022-10-22T00:15:50.313Z,1.42
2022-10-22T00:18:17.521Z,1.95
2022-10-22T00:20:44.740Z,1.90
2022-10-22T00:23:11.962Z,1.88
2022-10-22T00:25:39.437Z,2.20
2022-10-22T00:28:06.781Z,2.35
2022-10-22T00:30:33.919Z,1.60
2022-10-22T00:33:01.073Z,1.60
2022-10-22T00:35:28.237Z,1.70
2022-10-22T00:37:55.736Z,1.95
2022-10-22T00:40:23.285Z,1.90
2022-10-22T00:42:50.578Z,2.22
2022-10-22T00:45:25.914Z,1.90
2022-10-22T00:48:02.695Z,1.80
2022-10-22T00:50:33.813Z,1.80
2022-10-22T00:53:03.486Z,1.70
2022-10-22T00:55:33.411Z,1.67
2022-10-22T00:58:02.509Z,1.60
2022-10-22T01:00:30.298Z,1.80
2022-10-22T01:02:58.710Z,1.88
2022-10-22T01:05:40.372Z,1.90
2022-10-22T01:08:27.117Z,1.73
2022-10-22T01:11:22.335Z,2.17
2022-10-22T01:14:21.909Z,2.03
2022-10-22T01:20:11.921Z,2.00
2022-10-22T01:23:30.664Z,2.40
2022-10-22T01:29:11.100Z,2.60
2022-10-22T01:31:56.989Z,2.47
2022-10-22T01:34:26.434Z,2.92
2022-10-22T01:36:56.924Z,3.50
2022-10-22T01:39:28.522Z,3.20
2022-10-22T01:41:57.428Z,2.60
2022-10-22T01:47:57.177Z,2.20
2022-10-22T01:51:11.922Z,2.28
2022-10-22T01:53:51.354Z,2.25
2022-10-22T01:56:56.766Z,2.10
2022-10-22T01:59:57.990Z,2.17
2022-10-22T02:03:18.671Z,2.20
2022-10-22T02:05:59.855Z,2.15
2022-10-22T02:08:33.791Z,2.10
2022-10-22T02:11:02.205Z,1.90
2022-10-22T02:13:47.450Z,1.90
2022-10-22T02:16:28.376Z,1.83
2022-10-22T02:19:02.902Z,2.20
2022-10-22T02:21:31.354Z,2.15
2022-10-22T02:23:59.029Z,1.60
2022-10-22T02:27:12.854Z,2.00
2022-10-22T02:29:51.650Z,2.10
2022-10-22T02:32:27.663Z,2.25
2022-10-22T02:34:57.085Z,1.80
2022-10-22T02:37:27.379Z,1.65
2022-10-22T02:39:56.449Z,1.63
2022-10-22T02:42:26.606Z,1.75
2022-10-22T02:44:53.834Z,1.50
2022-10-22T02:47:21.046Z,1.83
2022-10-22T02:49:48.408Z,1.75
2022-10-22T02:52:15.865Z,1.75
2022-10-22T02:54:43.639Z,1.40
2022-10-22T02:57:10.978Z,1.75
2022-10-22T02:59:38.158Z,1.67
2022-10-22T03:02:31.058Z,1.42
2022-10-22T03:04:58.512Z,1.50
2022-10-22T03:07:25.995Z,1.50
2022-10-22T03:09:53.238Z,1.27
2022-10-22T03:12:20.531Z,1.50
2022-10-22T03:14:47.673Z,1.35
2022-10-22T03:17:14.940Z,1.30
2022-10-22T03:19:42.183Z,1.17
2022-10-22T03:22:26.835Z,0.88
2022-10-22T03:25:01.093Z,1.02
2022-10-22T03:27:30.399Z,1.08
2022-10-22T03:29:59.817Z,1.10
2022-10-22T03:32:27.043Z,1.08
2022-10-22T03:34:54.217Z,1.00
2022-10-22T03:37:22.570Z,1.10
2022-10-22T03:39:50.424Z,1.02
2022-10-22T03:42:18.155Z,1.07
2022-10-22T03:44:45.594Z,1.05
2022-10-22T03:47:12.830Z,1.13
2022-10-22T03:49:40.079Z,1.13
2022-10-22T03:52:12.173Z,1.15
2022-10-22T03:54:42.091Z,1.23
2022-10-22T03:57:10.931Z,1.10
2022-10-22T03:59:42.973Z,1.20
2022-10-22T04:02:13.369Z,1.02
2022-10-22T04:04:40.656Z,0.95
2022-10-22T04:07:09.003Z,1.05
2022-10-22T04:09:39.236Z,1.10
2022-10-22T04:12:07.971Z,1.00
2022-10-22T04:14:35.600Z,1.20
2022-10-22T04:17:03.129Z,1.35
2022-10-22T04:19:30.248Z,1.13
2022-10-22T04:22:01.461Z,1.08
2022-10-22T04:24:31.377Z,1.00
2022-10-22T04:26:59.368Z,1.27
2022-10-22T04:29:26.989Z,1.15
2022-10-22T04:31:54.104Z,1.45
2022-10-22T04:34:21.244Z,1.35
2022-10-22T04:36:55.446Z,1.20
2022-10-22T04:39:23.025Z,1.30
2022-10-22T04:41:50.381Z,1.20
2022-10-22T04:44:18.255Z,1.20
2022-10-22T04:46:46.031Z,0.98
2022-10-22T04:49:13.593Z,0.90
2022-10-22T04:51:41.023Z,1.10
2022-10-22T04:54:11.756Z,1.50
2022-10-22T04:56:39.341Z,2.00
2022-10-22T04:59:12.658Z,2.00
2022-10-22T05:01:44.397Z,1.85
2022-10-22T05:04:16.808Z,1.95
2022-10-22T05:06:45.432Z,1.65
2022-10-22T05:09:20.565Z,2.03
2022-10-22T05:11:52.535Z,2.20
2022-10-22T05:14:25.286Z,2.20
2022-10-22T05:16:53.173Z,2.10
2022-10-22T05:19:31.172Z,2.03
2022-10-22T05:22:04.281Z,2.40
2022-10-22T05:24:36.680Z,2.80
2022-10-22T05:27:04.358Z,2.92
2022-10-22T05:29:31.655Z,2.45
2022-10-22T05:31:58.802Z,2.90
2022-10-22T05:34:25.970Z,2.60
2022-10-22T05:36:54.447Z,2.85
2022-10-22T05:39:22.096Z,2.60
2022-10-22T05:41:49.419Z,3.00
2022-10-22T05:44:16.541Z,3.20
2022-10-22T05:46:43.657Z,3.10
2022-10-22T05:49:16.109Z,2.95
2022-10-22T05:51:43.599Z,3.17
2022-10-22T05:54:20.586Z,3.13
2022-10-22T05:56:48.676Z,2.70
2022-10-22T05:59:16.801Z,3.20
2022-10-22T06:01:44.047Z,3.60
2022-10-22T06:04:13.705Z,3.97
2022-10-22T06:06:47.735Z,3.10
2022-10-22T06:12:10.850Z,3.30
2022-10-22T06:14:38.130Z,2.80
2022-10-22T06:17:05.273Z,2.95
2022-10-22T06:19:32.621Z,3.88
2022-10-22T06:21:59.765Z,3.30
2022-10-22T06:24:26.888Z,3.13
2022-10-22T06:26:54.084Z,4.22
2022-10-22T06:29:21.913Z,3.92
2022-10-22T06:31:49.293Z,3.50
2022-10-22T06:34:20.603Z,3.47
2022-10-22T06:36:54.495Z,4.07
2022-10-22T06:39:21.993Z,3.92
2022-10-22T06:41:49.516Z,3.55
2022-10-22T06:44:20.375Z,3.30
2022-10-22T06:46:54.699Z,4.28
2022-10-22T06:49:22.146Z,4.10
2022-10-22T06:51:55.780Z,4.05
2022-10-22T06:54:29.816Z,3.83
2022-10-22T06:56:57.127Z,4.43
2022-10-22T06:59:24.673Z,3.97
2022-10-22T07:01:51.915Z,4.13
2022-10-22T07:04:19.151Z,4.13
2022-10-22T07:06:46.503Z,5.30
2022-10-22T07:09:14.313Z,4.20
2022-10-22T07:11:45.615Z,3.70
2022-10-22T07:14:14.316Z,3.50
2022-10-22T07:16:45.768Z,4.00
2022-10-22T07:19:13.782Z,3.53
2022-10-22T07:21:41.188Z,3.33
2022-10-22T07:24:14.699Z,4.13
2022-10-22T07:26:42.536Z,3.70
2022-10-22T07:29:10.102Z,4.30
2022-10-22T07:31:37.237Z,4.05
2022-10-22T07:34:04.391Z,4.70
2022-10-22T07:36:31.584Z,3.60
2022-10-22T07:39:00.822Z,3.75
2022-10-22T07:41:30.602Z,4.60
2022-10-22T07:43:59.447Z,4.45
2022-10-22T07:46:27.642Z,3.22
2022-10-22T07:48:55.124Z,3.30
2022-10-22T07:51:22.802Z,3.30
2022-10-22T07:53:50.000Z,2.17
2022-10-22T07:56:17.732Z,2.65
2022-10-22T07:58:44.999Z,2.78
2022-10-22T08:01:12.344Z,2.10
2022-10-22T08:03:39.789Z,2.55
2022-10-22T08:06:08.825Z,3.10
2022-10-22T08:08:36.088Z,3.10
2022-10-22T08:11:03.310Z,3.30
2022-10-22T08:13:31.407Z,2.92
2022-10-22T08:16:01.864Z,3.00
2022-10-22T08:18:30.081Z,2.55
2022-10-22T08:20:58.310Z,2.30
2022-10-22T08:23:27.437Z,2.72
2022-10-22T08:25:57.655Z,1.80
2022-10-22T08:28:25.996Z,1.30
2022-10-22T08:30:53.812Z,1.15
2022-10-22T08:33:21.804Z,1.10
2022-10-22T08:35:51.464Z,0.90
2022-10-22T08:41:21.005Z,1.00
2022-10-22T08:44:09.044Z,1.20
2022-10-22T08:48:02.003Z,1.67
2022-10-22T08:50:46.358Z,1.00
2022-10-22T08:53:54.155Z,1.10
2022-10-22T08:56:24.429Z,1.00
2022-10-22T08:59:32.819Z,0.90
2022-10-22T09:02:02.558Z,1.05
2022-10-22T09:04:52.991Z,1.70
2022-10-22T09:07:20.592Z,0.98
2022-10-22T09:09:57.903Z,0.70
2022-10-22T09:12:28.283Z,0.95
2022-10-22T09:14:55.592Z,0.90
2022-10-22T09:18:16.347Z,0.73
2022-10-22T09:21:11.174Z,0.80
2022-10-22T09:23:56.494Z,0.73
2022-10-22T09:26:27.335Z,0.70
2022-10-22T09:29:00.287Z,0.70
2022-10-22T09:31:31.575Z,1.20
2022-10-22T09:34:05.986Z,0.73
2022-10-22T09:36:35.372Z,0.70
2022-10-22T09:39:04.138Z,0.80
2022-10-22T09:41:31.444Z,0.80
2022-10-22T09:43:59.601Z,0.80
2022-10-22T09:46:45.424Z,0.90
2022-10-22T09:49:36.401Z,0.70
2022-10-22T09:52:28.925Z,0.90
2022-10-22T09:54:57.310Z,0.70
2022-10-22T09:57:26.473Z,0.80
2022-10-22T09:59:57.452Z,0.95
2022-10-22T10:02:44.000Z,0.80
2022-10-22T10:05:29.328Z,0.60
2022-10-22T10:07:58.267Z,1.10
2022-10-22T10:10:58.835Z,0.70
2022-10-22T10:13:48.046Z,0.50
2022-10-22T10:16:37.722Z,0.80
2022-10-22T10:19:38.429Z,0.60
2022-10-22T10:22:23.500Z,0.50
2022-10-22T10:25:19.433Z,0.63
2022-10-22T10:28:09.230Z,0.68
2022-10-22T10:31:02.980Z,0.70
2022-10-22T10:33:43.061Z,0.57
2022-10-22T10:37:01.112Z,0.70
2022-10-22T10:40:03.648Z,0.60
2022-10-22T10:43:02.882Z,1.00
2022-10-22T10:46:00.338Z,0.70
2022-10-22T10:48:59.544Z,0.77
2022-10-22T10:51:46.375Z,0.80
2022-10-22T10:54:50.746Z,0.77
2022-10-22T10:57:59.871Z,0.45
2022-10-22T11:00:39.584Z,0.85
2022-10-22T11:03:58.626Z,0.93
2022-10-22T11:06:30.661Z,0.80
2022-10-22T11:09:08.744Z,0.50
2022-10-22T11:11:41.486Z,0.60
2022-10-22T11:14:40.346Z,0.70
2022-10-22T11:17:18.873Z,1.00
2022-10-22T11:20:16.340Z,0.98
2022-10-22T11:23:25.109Z,0.75
2022-10-22T11:25:52.753Z,0.70
2022-10-22T11:28:47.885Z,0.77
2022-10-22T11:31:18.550Z,1.00
2022-10-22T11:34:28.646Z,1.00
2022-10-22T11:36:56.729Z,1.20
2022-10-22T11:39:51.922Z,0.80
2022-10-22T11:42:30.177Z,0.95
2022-10-22T11:45:29.048Z,0.80
2022-10-22T11:48:10.797Z,0.98
2022-10-22T11:50:47.200Z,0.80
2022-10-22T11:53:27.788Z,0.80
2022-10-22T11:56:13.251Z,0.90
2022-10-22T11:58:44.659Z,1.00
2022-10-22T12:01:11.812Z,0.80
2022-10-22T12:03:58.187Z,0.70
2022-10-22T12:06:28.592Z,0.75
2022-10-22T12:09:06.963Z,0.77
2022-10-22T12:11:39.893Z,0.80
2022-10-22T12:14:29.817Z,0.70
2022-10-22T12:17:07.495Z,0.85
2022-10-22T12:19:44.884Z,0.88
2022-10-22T12:22:37.077Z,1.10
2022-10-22T12:25:35.454Z,1.60
2022-10-22T12:28:05.428Z,1.48
2022-10-22T12:30:36.672Z,1.48
2022-10-22T12:33:22.278Z,1.92
2022-10-22T12:35:53.989Z,1.95
2022-10-22T12:38:27.633Z,2.70
2022-10-22T12:40:57.233Z,1.40
2022-10-22T12:43:29.941Z,2.08
2022-10-22T12:45:59.536Z,2.03
2022-10-22T12:48:38.896Z,1.63
2022-10-22T12:51:09.529Z,2.53
2022-10-22T12:53:44.358Z,2.20
2022-10-22T12:56:34.995Z,0.95
2022-10-22T12:59:22.755Z,0.90
2022-10-22T13:01:52.320Z,1.42
2022-10-22T13:04:28.456Z,0.95
2022-10-22T13:07:18.476Z,1.05
2022-10-22T13:10:00.253Z,1.10
2022-10-22T13:12:36.398Z,1.92
2022-10-22T13:15:31.472Z,1.60
2022-10-22T13:18:16.747Z,1.20
2022-10-22T13:21:03.252Z,1.73
2022-10-22T13:23:34.072Z,1.63
2022-10-22T13:26:04.226Z,1.30
2022-10-22T13:28:32.825Z,1.08
2022-10-22T13:31:17.884Z,1.50
2022-10-22T13:33:53.033Z,2.10
2022-10-22T13:36:20.442Z,1.17
2022-10-22T13:38:47.745Z,1.00
2022-10-22T13:41:32.170Z,0.50
2022-10-22T13:43:59.758Z,1.63
2022-10-22T13:46:27.627Z,0.98
2022-10-22T13:48:56.864Z,0.90
2022-10-22T13:51:34.838Z,1.25
2022-10-22T13:54:09.480Z,0.80
2022-10-22T13:56:36.707Z,0.80
2022-10-22T13:59:03.881Z,1.70
2022-10-22T14:01:31.219Z,2.53
2022-10-22T14:04:01.983Z,1.10
2022-10-22T14:06:32.795Z,1.08
2022-10-22T14:09:08.813Z,1.13
2022-10-22T14:11:36.252Z,0.90
2022-10-22T14:14:04.937Z,1.00
2022-10-22T14:16:33.195Z,1.35
2022-10-22T14:19:02.193Z,1.33
2022-10-22T14:21:37.987Z,0.70
2022-10-22T14:24:08.192Z,1.60
2022-10-22T14:26:38.077Z,1.35
2022-10-22T14:29:09.683Z,1.30
2022-10-22T14:31:44.152Z,1.15
2022-10-22T14:34:15.837Z,1.30
2022-10-22T14:36:44.245Z,1.30
2022-10-22T14:39:13.691Z,0.88
2022-10-22T14:41:42.438Z,1.13
2022-10-22T14:44:14.044Z,1.30
2022-10-22T14:46:43.849Z,1.60
2022-10-22T14:49:11.050Z,0.95
2022-10-22T14:51:38.344Z,0.85
2022-10-22T14:54:05.825Z,1.70
2022-10-22T14:56:33.758Z,1.15
2022-10-22T14:59:01.093Z,1.30
2022-10-22T15:01:28.597Z,1.30
2022-10-22T15:03:55.824Z,1.10
2022-10-22T15:06:23.144Z,0.98
2022-10-22T15:08:50.828Z,1.13
2022-10-22T15:11:18.149Z,2.63
2022-10-22T15:13:45.311Z,2.08
2022-10-22T15:16:16.359Z,2.45
2022-10-22T15:18:43.719Z,3.42
2022-10-22T15:21:19.327Z,3.08
2022-10-22T15:23:47.213Z,3.30
2022-10-22T15:26:15.855Z,3.45
2022-10-22T15:28:43.480Z,4.28
2022-10-22T15:31:15.177Z,5.55
2022-10-22T15:33:44.229Z,5.03
2022-10-22T15:36:16.333Z,4.95
2022-10-22T15:38:43.826Z,5.90
2022-10-22T15:41:13.465Z,4.50
2022-10-22T15:43:40.844Z,4.82
2022-10-22T15:46:19.950Z,4.60
2022-10-22T15:48:47.100Z,5.20
2022-10-22T15:51:19.711Z,4.82
2022-10-22T15:53:59.564Z,4.10
2022-10-22T15:56:29.980Z,4.60
2022-10-22T15:59:04.024Z,5.15
2022-10-22T16:01:35.331Z,4.20
2022-10-22T16:04:04.358Z,4.53
2022-10-22T16:06:39.898Z,5.20
2022-10-22T16:09:15.808Z,4.13
2022-10-22T16:11:44.805Z,4.53
2022-10-22T16:14:15.922Z,4.88
2022-10-22T16:16:48.752Z,5.70
2022-10-22T16:19:23.056Z,8.27
2022-10-22T16:21:54.998Z,6.13
2022-10-22T16:24:23.411Z,5.65
2022-10-22T16:26:52.682Z,6.10
2022-10-22T16:29:20.296Z,5.60
2022-10-22T16:31:48.030Z,4.10
2022-10-22T16:34:15.314Z,3.30
2022-10-22T16:36:44.303Z,2.95
2022-10-22T16:39:14.229Z,3.60
2022-10-22T16:41:41.443Z,2.67
2022-10-22T16:44:10.045Z,2.28
2022-10-22T16:46:38.575Z,2.40
2022-10-22T16:49:07.478Z,2.70
2022-10-22T16:51:36.075Z,4.40
2022-10-22T16:54:05.667Z,9.10
2022-10-22T16:56:37.902Z,4.85
2022-10-22T16:59:06.336Z,4.22
2022-10-22T17:01:37.953Z,4.78
2022-10-22T17:04:08.631Z,4.22
2022-10-22T17:06:36.118Z,4.20
2022-10-22T17:09:05.115Z,5.00
2022-10-22T17:11:36.262Z,4.95
2022-10-22T17:14:06.389Z,4.70
2022-10-22T17:16:33.691Z,4.25
2022-10-22T17:19:04.432Z,4.35
2022-10-22T17:21:31.836Z,4.90
2022-10-22T17:23:59.143Z,4.78
2022-10-22T17:26:27.077Z,5.10
2022-10-22T17:28:57.873Z,5.20
2022-10-22T17:31:37.800Z,4.78
2022-10-22T17:34:10.425Z,4.95
2022-10-22T17:36:37.926Z,4.85
2022-10-22T17:39:08.222Z,5.10
2022-10-22T17:41:37.595Z,3.72
2022-10-22T17:44:09.197Z,4.07
2022-10-22T17:46:38.125Z,10.77
2022-10-22T17:49:17.236Z,5.60
2022-10-22T17:51:45.232Z,7.00
2022-10-22T17:54:14.035Z,6.97
2022-10-22T17:56:42.115Z,6.00
2022-10-22T17:59:16.036Z,4.18
2022-10-22T18:01:45.786Z,4.45
2022-10-22T18:04:20.072Z,4.80
2022-10-22T18:06:48.567Z,5.43
2022-10-22T18:09:19.282Z,5.57
2022-10-22T18:11:50.821Z,5.75
2022-10-22T18:14:21.618Z,6.05
2022-10-22T18:16:50.942Z,5.75
2022-10-22T18:19:24.453Z,5.60
2022-10-22T18:21:52.080Z,4.95
2022-10-22T18:24:19.393Z,5.70
2022-10-22T18:26:46.635Z,6.93
2022-10-22T18:29:20.657Z,6.90
2022-10-22T18:31:49.081Z,9.65
2022-10-22T18:34:20.228Z,11.23
2022-10-22T18:37:02.204Z,14.38
2022-10-22T18:39:30.384Z,13.20
2022-10-22T18:41:57.715Z,10.50
2022-10-22T18:44:24.926Z,9.23
2022-10-22T18:46:55.519Z,8.80
2022-10-22T18:49:23.381Z,11.70
2022-10-22T18:51:52.902Z,13.80
2022-10-22T18:54:23.832Z,14.80
2022-10-22T18:57:00.486Z,19.08
2022-10-22T18:59:28.711Z,20.15
2022-10-22T19:02:00.355Z,8.07
2022-10-22T19:04:33.573Z,7.35
2022-10-22T19:07:01.251Z,6.20
2022-10-22T19:09:29.028Z,5.85
2022-10-22T19:11:56.450Z,5.35
2022-10-22T19:14:23.719Z,5.72
2022-10-22T19:16:51.018Z,5.40
2022-10-22T19:19:22.361Z,7.10
2022-10-22T19:21:50.660Z,6.82
2022-10-22T19:24:20.522Z,7.22
2022-10-22T19:26:49.811Z,6.75
2022-10-22T19:29:20.690Z,6.88
2022-10-22T19:31:50.985Z,7.13
2022-10-22T19:34:22.176Z,6.85
2022-10-22T19:36:54.691Z,7.10
2022-10-22T19:39:22.272Z,6.53
2022-10-22T19:41:50.118Z,6.53
2022-10-22T19:44:17.693Z,6.10
2022-10-22T19:46:46.091Z,5.75
2022-10-22T19:49:18.925Z,5.60
2022-10-22T19:51:49.321Z,5.13
2022-10-22T19:54:18.722Z,5.15
2022-10-22T19:56:47.776Z,5.35
2022-10-22T19:59:22.524Z,5.43
2022-10-22T20:01:50.340Z,5.95
2022-10-22T20:04:18.835Z,6.75
2022-10-22T20:06:47.021Z,6.15
2022-10-22T20:09:14.542Z,6.50
2022-10-22T20:11:41.853Z,6.10
2022-10-22T20:14:09.060Z,5.22
2022-10-22T20:16:36.382Z,6.72
2022-10-22T20:19:07.713Z,4.95
2022-10-22T20:21:35.338Z,4.57
2022-10-22T20:24:03.087Z,4.60
2022-10-22T20:26:31.664Z,4.47
2022-10-22T20:28:59.704Z,4.43
2022-10-22T20:31:32.781Z,4.57
2022-10-22T20:34:01.696Z,4.25
2022-10-22T20:36:31.093Z,4.25
2022-10-22T20:39:09.177Z,4.97
2022-10-22T20:41:40.321Z,4.47
2022-10-22T20:44:15.271Z,4.30
2022-10-22T20:46:43.921Z,5.50
2022-10-22T20:49:16.889Z,4.57
2022-10-22T20:51:44.784Z,5.20
2022-10-22T20:54:15.106Z,5.30
2022-10-22T20:56:43.552Z,5.28
2022-10-22T20:59:15.364Z,6.22
2022-10-22T21:01:52.802Z,4.75
2022-10-22T21:04:22.921Z,5.03
2022-10-22T21:06:53.308Z,5.07
2022-10-22T21:09:27.537Z,5.47
2022-10-22T21:12:04.400Z,5.75
2022-10-22T21:14:38.102Z,5.00
2022-10-22T21:17:10.174Z,4.97
2022-10-22T21:19:39.938Z,5.90
2022-10-22T21:22:12.574Z,5.30
2022-10-22T21:24:42.968Z,5.40
2022-10-22T21:27:12.577Z,5.53
2022-10-22T21:29:42.857Z,5.10
2022-10-22T21:32:15.321Z,5.03
2022-10-22T21:34:45.263Z,4.70
2022-10-22T21:37:13.580Z,4.68
2022-10-22T21:39:42.910Z,5.43
2022-10-22T21:42:17.226Z,5.25
2022-10-22T21:44:46.853Z,4.93
2022-10-22T21:47:17.021Z,4.85
2022-10-22T21:49:45.174Z,4.55
2022-10-22T21:52:13.486Z,4.82
2022-10-22T21:54:42.765Z,5.32
2022-10-22T21:57:13.398Z,5.03
2022-10-22T21:59:41.385Z,4.43
2022-10-22T22:02:12.208Z,4.95
2022-10-22T22:05:18.208Z,4.72
2022-10-22T22:07:46.036Z,5.53
2022-10-22T22:10:14.885Z,5.22
2022-10-22T22:12:44.489Z,5.45
2022-10-22T22:15:13.106Z,5.13
2022-10-22T22:17:40.866Z,5.05
2022-10-22T22:20:10.689Z,5.25
2022-10-22T22:22:39.865Z,5.85
2022-10-22T22:25:11.695Z,5.65
2022-10-22T22:27:39.613Z,5.40
2022-10-22T22:30:08.879Z,5.70
2022-10-22T22:32:36.836Z,4.90
2022-10-22T22:35:06.593Z,5.38
2022-10-22T22:37:34.817Z,5.55
2022-10-22T22:40:09.193Z,5.35
2022-10-22T22:42:37.101Z,5.20
2022-10-22T22:45:05.403Z,4.80
2022-10-22T22:47:32.816Z,4.88
2022-10-22T22:50:00.716Z,5.35
2022-10-22T22:52:30.725Z,5.40
2022-10-22T22:54:58.488Z,5.70
2022-10-22T22:57:25.954Z,5.68
2022-10-22T22:59:53.705Z,4.47
2022-10-22T23:02:21.367Z,5.72
2022-10-22T23:04:48.818Z,5.60
2022-10-22T23:07:16.264Z,5.45
2022-10-22T23:09:44.490Z,6.25
2022-10-22T23:12:11.869Z,6.13
2022-10-22T23:14:39.557Z,5.72
2022-10-22T23:17:07.095Z,5.78
2022-10-22T23:19:34.902Z,5.47
2022-10-22T23:22:02.638Z,5.60
2022-10-22T23:24:31.026Z,5.47
2022-10-22T23:27:04.254Z,5.22
2022-10-22T23:29:35.900Z,5.43
2022-10-22T23:32:08.714Z,5.72
2022-10-22T23:34:36.277Z,6.20
2022-10-22T23:37:04.342Z,5.07
2022-10-22T23:39:31.734Z,5.55
2022-10-22T23:41:59.425Z,5.38
2022-10-22T23:44:27.676Z,5.35
2022-10-22T23:46:55.404Z,4.53
2022-10-22T23:49:22.950Z,4.65
2022-10-22T23:51:50.445Z,5.32
2022-10-22T23:54:18.700Z,5.10
2022-10-22T23:56:47.100Z,5.00
2022-10-22T23:59:15.409Z,4.38
